TimeHST,TemperatureF,Dew PointF,Humidity,Sea Level PressureIn,VisibilityMPH,Wind Direction,Wind SpeedMPH,Gust SpeedMPH,PrecipitationIn,Events,Conditions,WindDirDegrees,DateUTC
12:53 AM,64.9,59.0,81,30.09,10.0,SW,5.8,-,N/A,,Scattered Clouds,230,2013-02-09 10:53:00
1:53 AM,64.9,57.9,78,30.08,10.0,WSW,8.1,-,N/A,,Mostly Cloudy,240,2013-02-09 11:53:00
2:53 AM,64.0,55.9,75,30.07,10.0,SW,6.9,-,N/A,,Mostly Cloudy,230,2013-02-09 12:53:00
3:53 AM,63.0,55.0,75,30.06,10.0,WSW,6.9,-,N/A,,Clear,240,2013-02-09 13:53:00
4:53 AM,63.0,54.0,72,30.07,10.0,WSW,8.1,-,N/A,,Mostly Cloudy,240,2013-02-09 14:53:00
5:53 AM,63.0,55.0,75,30.08,10.0,SW,8.1,-,N/A,,Mostly Cloudy,230,2013-02-09 15:53:00
6:53 AM,64.0,55.9,75,30.10,10.0,WSW,6.9,-,N/A,,Overcast,240,2013-02-09 16:53:00
7:53 AM,64.0,55.9,75,30.12,10.0,SW,4.6,-,N/A,,Scattered Clouds,230,2013-02-09 17:53:00
8:53 AM,71.1,61.0,70,30.13,10.0,Calm,Calm,-,0.00,,Overcast,0,2013-02-09 18:53:00
9:53 AM,73.0,64.0,73,30.14,10.0,Calm,Calm,-,0.02,,Overcast,0,2013-02-09 19:53:00
10:53 AM,73.0,64.9,76,30.13,10.0,NNW,8.1,-,N/A,,Mostly Cloudy,340,2013-02-09 20:53:00
11:32 AM,72.0,66.9,84,30.13,3.0,NW,5.8,-,0.09,Rain,Light Rain,320,2013-02-09 21:32:00
11:53 AM,73.0,66.9,81,30.12,10.0,NW,5.8,-,0.09,,Overcast,320,2013-02-09 21:53:00
12:37 PM,75.9,66.9,74,30.10,10.0,NE,10.4,-,N/A,,Mostly Cloudy,40,2013-02-09 22:37:00
12:53 PM,78.1,66.9,68,30.09,10.0,NE,10.4,-,N/A,,Mostly Cloudy,50,2013-02-09 22:53:00
1:53 PM,78.1,66.9,68,30.07,10.0,NE,11.5,-,N/A,,Scattered Clouds,50,2013-02-09 23:53:00
2:53 PM,77.0,64.0,64,30.06,10.0,ENE,13.8,-,N/A,,Scattered Clouds,60,2013-02-10 00:53:00
3:53 PM,75.0,64.0,69,30.06,10.0,ENE,10.4,-,N/A,,Mostly Cloudy,60,2013-02-10 01:53:00
4:53 PM,73.9,64.9,73,30.07,10.0,ENE,10.4,-,N/A,,Mostly Cloudy,70,2013-02-10 02:53:00
5:53 PM,73.0,64.0,73,30.09,10.0,East,8.1,-,N/A,,Mostly Cloudy,80,2013-02-10 03:53:00
6:12 PM,73.0,64.0,73,30.10,10.0,ENE,6.9,-,N/A,,Mostly Cloudy,70,2013-02-10 04:12:00
6:34 PM,72.0,64.0,76,30.10,10.0,ENE,6.9,-,N/A,,Overcast,70,2013-02-10 04:34:00
6:53 PM,72.0,64.0,76,30.11,10.0,ENE,8.1,-,N/A,,Overcast,70,2013-02-10 04:53:00
7:19 PM,72.0,64.0,76,30.12,10.0,ENE,4.6,-,N/A,,Overcast,70,2013-02-10 05:19:00
7:44 PM,71.1,64.0,78,30.13,10.0,ENE,5.8,-,N/A,,Mostly Cloudy,60,2013-02-10 05:44:00
7:53 PM,71.1,64.0,78,30.13,10.0,ENE,5.8,-,N/A,,Scattered Clouds,70,2013-02-10 05:53:00
8:39 PM,70.0,64.0,81,30.14,10.0,East,3.5,-,N/A,,Mostly Cloudy,90,2013-02-10 06:39:00
8:53 PM,70.0,64.0,81,30.15,10.0,ENE,4.6,-,N/A,,Scattered Clouds,70,2013-02-10 06:53:00
9:53 PM,68.0,64.0,87,30.16,10.0,Calm,Calm,-,N/A,,Scattered Clouds,0,2013-02-10 07:53:00
10:53 PM,-9999,-9999,N/A,30.16,10.0,ENE,5.8,-,N/A,,Mostly Cloudy,70,2013-02-10 08:53:00
11:53 PM,68.0,63.0,84,30.16,10.0,Calm,Calm,-,N/A,,Scattered Clouds,0,2013-02-10 09:53:00